createdAt,value
2016-10-07T00:00:20.853Z,0
2016-10-07T00:01:20.945Z,0
2016-10-07T00:02:20.850Z,0
2016-10-07T00:03:20.827Z,0
2016-10-07T00:04:20.835Z,0
2016-10-07T00:05:20.812Z,0
2016-10-07T00:06:20.810Z,0
2016-10-07T00:07:20.805Z,0
2016-10-07T00:08:20.811Z,0
2016-10-07T00:09:20.786Z,0
2016-10-07T00:10:20.780Z,0
2016-10-07T00:11:20.775Z,0
2016-10-07T00:12:20.758Z,0
2016-10-07T00:13:20.752Z,0
2016-10-07T00:14:20.742Z,0
2016-10-07T00:15:20.751Z,0
2016-10-07T00:16:20.722Z,0
2016-10-07T00:17:20.716Z,0
2016-10-07T00:18:23.199Z,0
2016-10-07T00:19:23.470Z,0
2016-10-07T00:20:20.687Z,0
2016-10-07T00:21:22.585Z,0
2016-10-07T00:22:20.682Z,0
2016-10-07T00:23:20.937Z,0
2016-10-07T00:24:20.662Z,0
2016-10-07T00:25:20.656Z,0
2016-10-07T00:26:20.650Z,0
2016-10-07T00:28:20.883Z,0
2016-10-07T00:29:21.798Z,0
2016-10-07T00:30:21.071Z,0
2016-10-07T00:31:22.225Z,0
2016-10-07T00:32:20.595Z,0
2016-10-07T00:33:20.589Z,0
2016-10-07T00:34:20.578Z,0
2016-10-07T00:35:20.580Z,0
2016-10-07T00:36:20.567Z,0
2016-10-07T00:37:20.561Z,0
2016-10-07T00:38:20.555Z,0
2016-10-07T00:39:20.535Z,0
2016-10-07T00:40:20.535Z,0
2016-10-07T00:41:20.534Z,0
2016-10-07T00:42:20.521Z,0
2016-10-07T00:43:20.539Z,0
2016-10-07T00:44:20.500Z,0
2016-10-07T00:45:20.497Z,0
2016-10-07T00:46:20.485Z,0
2016-10-07T00:47:20.477Z,0
2016-10-07T00:48:20.472Z,0
2016-10-07T00:49:20.461Z,0
2016-10-07T00:50:20.456Z,0
2016-10-07T00:51:20.454Z,0
2016-10-07T00:52:20.444Z,0
2016-10-07T00:53:20.429Z,0
2016-10-07T00:54:20.422Z,0
2016-10-07T00:55:20.416Z,0
2016-10-07T00:56:20.415Z,0
2016-10-07T00:57:20.399Z,0
2016-10-07T00:58:20.393Z,0
2016-10-07T00:59:20.379Z,0
2016-10-07T01:00:20.384Z,0
2016-10-07T01:01:20.368Z,0
2016-10-07T01:02:22.711Z,0
2016-10-07T01:03:23.148Z,0
2016-10-07T01:04:50.724Z,0
2016-10-07T01:05:20.787Z,0
2016-10-07T01:06:20.333Z,0
2016-10-07T01:07:21.076Z,0
2016-10-07T01:08:20.565Z,0
2016-10-07T01:09:20.305Z,0
2016-10-07T01:10:20.351Z,0
2016-10-07T01:11:20.284Z,0
2016-10-07T01:12:21.734Z,0
2016-10-07T01:13:21.126Z,0
2016-10-07T01:14:20.967Z,0
2016-10-07T01:15:20.408Z,0
2016-10-07T01:16:20.250Z,0
2016-10-07T01:17:20.456Z,0
2016-10-07T01:18:20.789Z,0
2016-10-07T01:19:20.384Z,0
2016-10-07T01:20:20.222Z,0
2016-10-07T01:21:20.207Z,0
2016-10-07T01:22:20.196Z,0
2016-10-07T01:23:20.435Z,0
2016-10-07T01:24:20.205Z,0
2016-10-07T01:25:20.182Z,0
2016-10-07T01:26:20.175Z,0
2016-10-07T01:27:20.164Z,0
2016-10-07T01:28:20.152Z,0
2016-10-07T01:29:20.150Z,0
2016-10-07T01:30:20.149Z,0
2016-10-07T01:31:20.129Z,0
2016-10-07T01:32:20.121Z,0
2016-10-07T01:33:20.112Z,0
2016-10-07T01:34:20.107Z,0
2016-10-07T01:35:20.114Z,0
2016-10-07T01:37:20.805Z,0
2016-10-07T01:38:21.993Z,0
2016-10-07T01:39:21.533Z,0
2016-10-07T01:40:20.120Z,0
2016-10-07T01:41:21.369Z,0
2016-10-07T01:42:20.041Z,0
2016-10-07T01:43:20.044Z,0
2016-10-07T01:44:20.033Z,0
2016-10-07T01:45:20.017Z,0
2016-10-07T01:46:23.084Z,0
2016-10-07T01:47:21.308Z,0
2016-10-07T01:48:21.600Z,0
2016-10-07T01:49:21.502Z,0
2016-10-07T01:50:20.397Z,0
2016-10-07T01:51:19.976Z,0
2016-10-07T01:52:19.961Z,0
2016-10-07T01:53:19.965Z,0
2016-10-07T01:54:19.977Z,0
2016-10-07T01:55:19.939Z,0
2016-10-07T01:56:19.932Z,0
2016-10-07T01:57:19.923Z,0
2016-10-07T01:58:19.915Z,0
2016-10-07T01:59:19.909Z,0
2016-10-07T02:00:19.897Z,0
2016-10-07T02:01:19.890Z,0
2016-10-07T02:02:19.885Z,0
2016-10-07T02:03:19.874Z,0
2016-10-07T02:04:19.861Z,0
2016-10-07T02:05:19.855Z,0
2016-10-07T02:06:19.859Z,0
2016-10-07T02:07:19.838Z,0
2016-10-07T02:08:19.833Z,0
2016-10-07T02:09:19.831Z,0
2016-10-07T02:10:19.814Z,0
2016-10-07T02:11:19.806Z,0
2016-10-07T02:12:19.805Z,0
2016-10-07T02:13:19.795Z,0
2016-10-07T02:14:19.787Z,0
2016-10-07T02:15:19.773Z,0
2016-10-07T02:16:19.763Z,0
2016-10-07T02:17:19.756Z,0
2016-10-07T02:18:19.743Z,0
2016-10-07T02:19:19.743Z,0
2016-10-07T02:20:19.728Z,0
2016-10-07T02:21:34.641Z,0
2016-10-07T02:22:20.167Z,0
2016-10-07T02:23:34.926Z,0
2016-10-07T02:25:20.649Z,0
2016-10-07T02:26:19.688Z,0
2016-10-07T02:27:19.771Z,0
2016-10-07T02:28:19.674Z,0
2016-10-07T02:29:19.656Z,0
2016-10-07T02:30:20.154Z,0
2016-10-07T02:31:19.644Z,0
2016-10-07T02:32:20.235Z,0
2016-10-07T02:33:19.630Z,0
2016-10-07T02:34:19.625Z,0
2016-10-07T02:35:20.207Z,0
2016-10-07T02:36:19.605Z,0
2016-10-07T02:37:19.599Z,0
2016-10-07T02:38:19.592Z,0
2016-10-07T02:39:19.581Z,0
2016-10-07T02:40:19.574Z,0
2016-10-07T02:41:19.559Z,0
2016-10-07T02:42:19.557Z,0
2016-10-07T02:43:19.549Z,0
2016-10-07T02:44:19.544Z,0
2016-10-07T02:45:19.533Z,0
2016-10-07T02:46:19.529Z,0
2016-10-07T02:47:19.512Z,0
2016-10-07T02:48:19.517Z,0
2016-10-07T02:49:19.502Z,0
2016-10-07T02:50:19.495Z,0
2016-10-07T02:51:19.481Z,0
2016-10-07T02:52:19.485Z,0
2016-10-07T02:53:19.478Z,0
2016-10-07T02:54:19.459Z,0
2016-10-07T02:55:22.756Z,0
2016-10-07T02:56:21.541Z,0
2016-10-07T02:57:19.981Z,0
2016-10-07T02:58:19.424Z,0
2016-10-07T02:59:19.420Z,0
2016-10-07T03:00:19.822Z,0
2016-10-07T03:01:19.413Z,0
2016-10-07T03:02:19.392Z,0
2016-10-07T03:03:19.382Z,0
2016-10-07T03:04:19.543Z,0
2016-10-07T03:05:22.307Z,0
2016-10-07T03:06:19.965Z,0
2016-10-07T03:07:20.829Z,0
2016-10-07T03:08:20.406Z,0
2016-10-07T03:09:19.343Z,0
2016-10-07T03:10:19.329Z,0
2016-10-07T03:11:19.327Z,0
2016-10-07T03:12:19.322Z,0
2016-10-07T03:13:19.320Z,0
2016-10-07T03:14:19.298Z,0
2016-10-07T03:15:19.297Z,0
2016-10-07T03:16:19.282Z,0
2016-10-07T03:17:19.284Z,0
2016-10-07T03:18:19.266Z,0
2016-10-07T03:19:19.257Z,0
2016-10-07T03:20:19.254Z,0
2016-10-07T03:21:19.552Z,0
2016-10-07T03:22:19.237Z,0
2016-10-07T03:23:19.252Z,0
2016-10-07T03:24:19.225Z,0
2016-10-07T03:25:19.210Z,0
2016-10-07T03:26:19.213Z,0
2016-10-07T03:27:19.200Z,0
2016-10-07T03:28:19.497Z,0
2016-10-07T03:29:19.191Z,0
2016-10-07T03:30:19.176Z,0
2016-10-07T03:31:19.171Z,0
2016-10-07T03:32:19.454Z,0
2016-10-07T03:33:19.153Z,0
2016-10-07T03:34:19.142Z,0
2016-10-07T03:35:19.142Z,0
2016-10-07T03:36:19.126Z,0
2016-10-07T03:37:19.119Z,0
2016-10-07T03:38:19.117Z,0
2016-10-07T03:39:20.855Z,0
2016-10-07T03:40:19.998Z,0
2016-10-07T03:41:34.001Z,0
2016-10-07T03:42:19.840Z,0
2016-10-07T03:44:19.510Z,0
2016-10-07T03:45:19.367Z,0
2016-10-07T03:46:19.053Z,0
2016-10-07T03:47:19.044Z,0
2016-10-07T03:48:33.955Z,0
2016-10-07T03:49:19.473Z,0
2016-10-07T03:51:19.563Z,0
2016-10-07T03:52:18.996Z,0
2016-10-07T03:53:18.995Z,0
2016-10-07T03:54:18.985Z,0
2016-10-07T03:55:19.178Z,0
2016-10-07T03:56:18.978Z,0
2016-10-07T03:57:18.971Z,0
2016-10-07T03:58:18.961Z,0
2016-10-07T03:59:18.950Z,0
2016-10-07T04:00:18.944Z,0
2016-10-07T04:01:19.229Z,0
2016-10-07T04:02:18.933Z,0
2016-10-07T04:03:18.914Z,0
2016-10-07T04:04:18.903Z,0
2016-10-07T04:05:18.894Z,0
2016-10-07T04:06:18.900Z,0
2016-10-07T04:07:18.880Z,0
2016-10-07T04:08:18.879Z,0
2016-10-07T04:09:18.865Z,0
2016-10-07T04:10:18.863Z,0
2016-10-07T04:11:18.871Z,0
2016-10-07T04:12:18.845Z,0
2016-10-07T04:13:19.411Z,0
2016-10-07T04:14:18.918Z,0
2016-10-07T04:15:20.494Z,0
2016-10-07T04:16:18.828Z,0
2016-10-07T04:17:18.833Z,0
2016-10-07T04:18:18.797Z,0
2016-10-07T04:19:18.792Z,0
2016-10-07T04:20:18.780Z,0
2016-10-07T04:21:18.782Z,0
2016-10-07T04:22:21.680Z,0
2016-10-07T04:23:22.151Z,0
2016-10-07T04:24:18.747Z,0
2016-10-07T04:25:20.268Z,0
2016-10-07T04:26:18.754Z,0
2016-10-07T04:27:18.732Z,0
2016-10-07T04:28:18.726Z,0
2016-10-07T04:29:19.017Z,0
2016-10-07T04:30:19.002Z,0
2016-10-07T04:31:18.691Z,0
2016-10-07T04:32:18.686Z,0
2016-10-07T04:33:18.690Z,0
2016-10-07T04:34:18.678Z,0
2016-10-07T04:35:18.680Z,0
2016-10-07T04:36:18.666Z,0
2016-10-07T04:37:18.653Z,0
2016-10-07T04:38:18.633Z,0
2016-10-07T04:39:18.635Z,0
2016-10-07T04:40:18.629Z,0
2016-10-07T04:41:18.624Z,0
2016-10-07T04:42:18.617Z,0
2016-10-07T04:43:18.610Z,0
2016-10-07T04:44:18.896Z,0
2016-10-07T04:45:18.585Z,0
2016-10-07T04:46:18.579Z,0
2016-10-07T04:47:18.572Z,4
2016-10-07T04:48:18.567Z,4
2016-10-07T04:49:18.559Z,4
2016-10-07T04:50:18.545Z,0
2016-10-07T04:51:18.542Z,4
2016-10-07T04:52:18.535Z,4
2016-10-07T04:53:18.534Z,4
2016-10-07T04:54:18.519Z,4
2016-10-07T04:55:18.516Z,8
2016-10-07T04:56:18.500Z,8
2016-10-07T04:57:33.565Z,8
2016-10-07T04:59:19.127Z,12
2016-10-07T05:00:18.827Z,12
2016-10-07T05:01:18.471Z,16
2016-10-07T05:02:18.559Z,24
2016-10-07T05:03:18.652Z,28
2016-10-07T05:04:18.448Z,36
2016-10-07T05:05:18.434Z,48
2016-10-07T05:06:19.435Z,52
2016-10-07T05:07:33.332Z,60
2016-10-07T05:08:19.263Z,68
2016-10-07T05:09:33.632Z,80
2016-10-07T05:10:19.249Z,88
2016-10-07T05:11:18.386Z,96
2016-10-07T05:12:18.378Z,116
2016-10-07T05:13:18.374Z,144
2016-10-07T05:14:18.361Z,156
2016-10-07T05:15:18.358Z,164
2016-10-07T05:16:18.343Z,176
2016-10-07T05:17:18.345Z,172
2016-10-07T05:18:18.350Z,184
2016-10-07T05:19:18.327Z,200
2016-10-07T05:20:18.323Z,224
2016-10-07T05:21:18.310Z,256
2016-10-07T05:22:18.313Z,264
2016-10-07T05:23:18.291Z,312
2016-10-07T05:24:18.282Z,376
2016-10-07T05:25:18.284Z,416
2016-10-07T05:26:18.272Z,460
2016-10-07T05:27:18.267Z,532
2016-10-07T05:28:18.259Z,588
2016-10-07T05:29:18.248Z,632
2016-10-07T05:30:18.243Z,672
2016-10-07T05:31:21.269Z,672
2016-10-07T05:33:19.729Z,676
2016-10-07T05:34:18.804Z,724
2016-10-07T05:35:19.806Z,772
2016-10-07T05:36:18.193Z,816
2016-10-07T05:37:18.199Z,956
2016-10-07T05:38:18.183Z,1056
2016-10-07T05:39:18.172Z,1080
2016-10-07T05:40:19.688Z,1168
2016-10-07T05:41:20.699Z,1292
2016-10-07T05:42:18.396Z,1436
2016-10-07T05:43:18.179Z,1572
2016-10-07T05:44:19.707Z,1604
2016-10-07T05:45:18.129Z,1580
2016-10-07T05:46:18.266Z,1576
2016-10-07T05:47:18.117Z,1492
2016-10-07T05:48:18.106Z,1392
2016-10-07T05:49:18.093Z,1336
2016-10-07T05:50:18.089Z,1440
2016-10-07T05:51:18.093Z,1544
2016-10-07T05:52:18.076Z,1584
2016-10-07T05:53:18.067Z,1676
2016-10-07T05:54:18.053Z,1804
2016-10-07T05:55:18.047Z,1904
2016-10-07T05:56:18.040Z,2016
2016-10-07T05:57:18.050Z,2052
2016-10-07T05:58:18.022Z,2140
2016-10-07T05:59:18.010Z,2372
2016-10-07T06:00:18.009Z,2576
2016-10-07T06:01:17.999Z,2812
2016-10-07T06:02:17.998Z,2924
2016-10-07T06:03:17.993Z,2876
2016-10-07T06:04:17.989Z,2728
2016-10-07T06:05:17.974Z,2640
2016-10-07T06:06:17.962Z,2640
2016-10-07T06:07:17.961Z,2688
2016-10-07T06:08:17.963Z,2780
2016-10-07T06:09:17.945Z,2904
2016-10-07T06:10:17.967Z,3080
2016-10-07T06:11:17.926Z,3472
2016-10-07T06:12:17.915Z,3980
2016-10-07T06:13:17.908Z,4332
2016-10-07T06:14:17.903Z,3912
2016-10-07T06:15:18.799Z,3632
2016-10-07T06:16:18.398Z,3676
2016-10-07T06:17:18.631Z,3832
2016-10-07T06:18:17.972Z,3976
2016-10-07T06:19:18.319Z,3880
2016-10-07T06:20:17.861Z,3816
2016-10-07T06:21:18.203Z,3716
2016-10-07T06:22:18.256Z,3392
2016-10-07T06:23:17.995Z,3008
2016-10-07T06:24:17.839Z,2868
2016-10-07T06:25:32.741Z,2940
2016-10-07T06:26:33.128Z,3144
2016-10-07T06:27:33.827Z,3548
2016-10-07T06:28:17.806Z,3880
2016-10-07T06:29:17.793Z,4500
2016-10-07T06:30:18.652Z,5344
2016-10-07T06:31:18.135Z,6184
2016-10-07T06:32:17.776Z,6640
2016-10-07T06:33:17.776Z,6828
2016-10-07T06:34:17.757Z,7260
2016-10-07T06:35:17.747Z,7552
2016-10-07T06:36:17.743Z,7524
2016-10-07T06:37:17.744Z,7588
2016-10-07T06:38:17.747Z,7532
2016-10-07T06:39:17.727Z,8176
2016-10-07T06:40:17.715Z,9064
2016-10-07T06:41:18.025Z,9264
2016-10-07T06:42:17.705Z,9020
2016-10-07T06:43:17.999Z,8752
2016-10-07T06:44:17.690Z,8220
2016-10-07T06:45:17.686Z,7556
2016-10-07T06:46:17.681Z,6896
2016-10-07T06:47:17.670Z,6108
2016-10-07T06:48:17.969Z,5584
2016-10-07T06:49:19.179Z,5532
2016-10-07T06:50:19.341Z,5824
2016-10-07T06:51:19.467Z,6312
2016-10-07T06:52:19.642Z,6812
2016-10-07T06:53:17.633Z,6880
2016-10-07T06:54:18.320Z,6772
2016-10-07T06:55:17.617Z,6596
2016-10-07T06:56:17.610Z,6444
2016-10-07T06:57:17.606Z,6348
2016-10-07T06:58:17.603Z,6160
2016-10-07T06:59:19.872Z,6072
2016-10-07T07:00:18.797Z,6100
2016-10-07T07:01:19.460Z,6048
2016-10-07T07:02:17.577Z,6236
2016-10-07T07:03:19.007Z,6808
2016-10-07T07:04:17.570Z,7316
2016-10-07T07:05:17.945Z,7720
2016-10-07T07:06:17.720Z,8052
2016-10-07T07:07:17.538Z,8576
2016-10-07T07:08:17.538Z,8648
2016-10-07T07:09:17.533Z,8412
2016-10-07T07:10:17.528Z,8004
2016-10-07T07:11:17.525Z,7688
2016-10-07T07:12:17.515Z,7640
2016-10-07T07:13:17.509Z,7536
2016-10-07T07:14:17.493Z,7476
2016-10-07T07:15:17.484Z,7388
2016-10-07T07:16:17.490Z,7560
2016-10-07T07:17:17.490Z,7876
2016-10-07T07:18:17.475Z,8460
2016-10-07T07:19:17.469Z,9252
2016-10-07T07:20:17.462Z,9844
2016-10-07T07:21:17.457Z,10176
2016-10-07T07:22:17.450Z,10716
2016-10-07T07:23:17.449Z,11144
2016-10-07T07:24:17.439Z,11596
2016-10-07T07:25:17.427Z,11964
2016-10-07T07:26:17.428Z,12248
2016-10-07T07:27:17.421Z,11628
2016-10-07T07:28:17.414Z,11488
2016-10-07T07:29:17.405Z,11328
2016-10-07T07:30:17.397Z,11172
2016-10-07T07:31:17.397Z,10964
2016-10-07T07:32:17.389Z,10896
2016-10-07T07:33:17.387Z,11100
2016-10-07T07:34:32.642Z,12216
2016-10-07T07:36:17.866Z,12196
2016-10-07T07:37:17.369Z,11964
2016-10-07T07:38:17.367Z,11416
2016-10-07T07:39:17.364Z,10956
2016-10-07T07:40:17.402Z,10336
2016-10-07T07:41:17.345Z,9852
2016-10-07T07:42:17.345Z,9952
2016-10-07T07:43:17.938Z,9780
2016-10-07T07:46:17.822Z,10688
2016-10-07T07:47:17.967Z,10460
2016-10-07T07:48:17.517Z,10152
2016-10-07T07:49:17.298Z,9968
2016-10-07T07:50:17.302Z,9972
2016-10-07T07:51:17.551Z,9640
2016-10-07T07:52:17.297Z,9184
2016-10-07T07:53:17.290Z,8992
2016-10-07T07:54:17.286Z,9112
2016-10-07T07:55:17.280Z,9332
2016-10-07T07:56:17.520Z,9932
2016-10-07T07:57:17.269Z,10408
2016-10-07T07:58:17.260Z,10368
2016-10-07T07:59:17.264Z,10156
2016-10-07T08:00:17.257Z,9852
2016-10-07T08:01:17.556Z,9300
2016-10-07T08:02:17.244Z,8732
2016-10-07T08:03:17.242Z,8500
2016-10-07T08:04:17.255Z,8560
2016-10-07T08:05:17.234Z,8648
2016-10-07T08:06:17.223Z,8444
2016-10-07T08:07:17.249Z,8512
2016-10-07T08:08:20.666Z,9008
2016-10-07T08:09:19.948Z,9132
2016-10-07T08:10:19.126Z,8632
2016-10-07T08:11:19.021Z,7480
2016-10-07T08:12:17.209Z,6496
2016-10-07T08:13:18.240Z,6132
2016-10-07T08:14:17.193Z,6392
2016-10-07T08:15:17.198Z,7104
2016-10-07T08:16:17.186Z,7436
2016-10-07T08:17:33.854Z,6984
2016-10-07T08:18:19.588Z,6692
2016-10-07T08:19:19.168Z,6412
2016-10-07T08:20:17.463Z,6152
2016-10-07T08:21:17.659Z,6108
2016-10-07T08:22:17.171Z,6108
2016-10-07T08:23:17.157Z,5924
2016-10-07T08:24:17.145Z,5632
2016-10-07T08:25:17.144Z,5480
2016-10-07T08:26:17.137Z,5444
2016-10-07T08:27:17.137Z,5420
2016-10-07T08:28:17.122Z,5320
2016-10-07T08:29:17.122Z,5168
2016-10-07T08:30:17.116Z,5036
2016-10-07T08:31:17.113Z,4944
2016-10-07T08:32:17.104Z,4924
2016-10-07T08:33:17.100Z,4968
2016-10-07T08:34:17.090Z,5148
2016-10-07T08:35:17.085Z,5392
2016-10-07T08:36:17.082Z,5464
2016-10-07T08:37:17.076Z,5432
2016-10-07T08:38:17.076Z,5428
2016-10-07T08:39:17.057Z,5584
2016-10-07T08:40:17.066Z,5948
2016-10-07T08:41:17.061Z,6428
2016-10-07T08:42:17.038Z,6736
2016-10-07T08:43:17.038Z,6780
2016-10-07T08:44:17.049Z,6884
2016-10-07T08:45:17.030Z,7168
2016-10-07T08:46:17.026Z,7660
2016-10-07T08:47:17.021Z,8048
2016-10-07T08:48:17.012Z,8388
2016-10-07T08:49:17.002Z,8636
2016-10-07T08:50:16.998Z,8816
2016-10-07T08:51:17.001Z,8980
2016-10-07T08:53:31.949Z,9372
2016-10-07T08:54:33.442Z,9468
2016-10-07T08:55:18.224Z,9472
2016-10-07T08:57:17.711Z,9096
2016-10-07T08:58:17.309Z,8980
2016-10-07T08:59:16.948Z,8804
2016-10-07T09:00:16.948Z,8632
2016-10-07T09:02:18.833Z,8992
2016-10-07T09:03:47.257Z,9080
2016-10-07T09:04:31.887Z,9044
2016-10-07T09:05:31.929Z,9032
2016-10-07T09:06:16.903Z,9068
2016-10-07T09:07:17.159Z,9096
2016-10-07T09:08:16.897Z,9104
2016-10-07T09:09:16.995Z,9088
2016-10-07T09:10:16.893Z,9096
2016-10-07T09:11:16.895Z,9128
2016-10-07T09:12:16.882Z,9104
2016-10-07T09:13:16.870Z,9112
2016-10-07T09:14:16.861Z,9244
2016-10-07T09:15:16.853Z,9384
2016-10-07T09:16:16.861Z,9528
2016-10-07T09:17:16.852Z,9720
2016-10-07T09:18:16.848Z,9948
2016-10-07T09:19:16.836Z,10300
2016-10-07T09:20:16.837Z,10640
2016-10-07T09:21:16.824Z,10800
2016-10-07T09:22:16.821Z,10776
2016-10-07T09:23:16.820Z,10836
2016-10-07T09:24:16.803Z,10776
2016-10-07T09:25:16.807Z,10440
2016-10-07T09:26:19.615Z,10040
2016-10-07T09:27:18.224Z,9760
2016-10-07T09:28:17.167Z,9516
2016-10-07T09:29:16.779Z,9348
2016-10-07T09:30:17.085Z,9288
2016-10-07T09:31:17.362Z,9324
2016-10-07T09:32:16.826Z,9488
2016-10-07T09:33:16.763Z,9724
2016-10-07T09:34:16.755Z,9904
2016-10-07T09:35:18.697Z,9992
2016-10-07T09:36:19.526Z,10148
2016-10-07T09:37:17.067Z,10436
2016-10-07T09:38:16.736Z,10744
2016-10-07T09:39:17.814Z,10944
2016-10-07T09:40:16.731Z,10980
2016-10-07T09:41:16.716Z,10940
2016-10-07T09:42:16.718Z,11028
2016-10-07T09:43:16.708Z,11296
2016-10-07T09:44:16.706Z,11660
2016-10-07T09:45:16.701Z,12128
2016-10-07T09:46:16.689Z,12596
2016-10-07T09:47:16.694Z,12872
2016-10-07T09:48:16.691Z,12860
2016-10-07T09:49:16.694Z,12676
2016-10-07T09:50:16.696Z,12540
2016-10-07T09:51:16.664Z,12556
2016-10-07T09:52:16.661Z,12720
2016-10-07T09:53:16.663Z,13040
2016-10-07T09:54:16.657Z,13472
2016-10-07T09:55:16.649Z,13932
2016-10-07T09:56:16.642Z,14344
2016-10-07T09:57:16.637Z,14628
2016-10-07T09:58:16.642Z,14560
2016-10-07T09:59:16.645Z,14176
2016-10-07T10:00:16.642Z,14096
2016-10-07T10:01:16.622Z,14644
2016-10-07T10:02:16.935Z,15564
2016-10-07T10:03:16.619Z,16640
2016-10-07T10:04:16.913Z,17376
2016-10-07T10:05:16.602Z,17856
2016-10-07T10:06:16.598Z,18176
2016-10-07T10:07:16.602Z,18336
2016-10-07T10:08:16.590Z,18432
2016-10-07T10:09:16.587Z,18496
2016-10-07T10:10:32.596Z,18432
2016-10-07T10:11:17.225Z,18368
2016-10-07T10:14:17.220Z,18848
2016-10-07T10:15:16.561Z,18688
2016-10-07T10:16:16.663Z,18592
2016-10-07T10:17:16.709Z,18368
2016-10-07T10:18:16.544Z,18080
2016-10-07T10:19:16.546Z,17920
2016-10-07T10:20:31.463Z,17888
2016-10-07T10:21:16.841Z,17920
2016-10-07T10:22:31.455Z,17664
2016-10-07T10:23:17.986Z,17472
2016-10-07T10:24:17.031Z,17568
2016-10-07T10:25:16.526Z,17760
2016-10-07T10:26:16.521Z,17888
2016-10-07T10:27:16.522Z,17728
2016-10-07T10:28:16.824Z,17600
2016-10-07T10:29:16.514Z,17568
2016-10-07T10:30:16.517Z,17920
2016-10-07T10:31:16.512Z,18048
2016-10-07T10:32:16.503Z,17888
2016-10-07T10:33:16.505Z,17440
2016-10-07T10:34:16.497Z,17088
2016-10-07T10:35:16.495Z,16992
2016-10-07T10:36:16.489Z,17088
2016-10-07T10:37:16.492Z,16864
2016-10-07T10:38:16.494Z,16640
2016-10-07T10:39:16.493Z,16396
2016-10-07T10:40:16.490Z,16164
2016-10-07T10:41:16.483Z,16080
2016-10-07T10:42:16.479Z,15996
2016-10-07T10:43:16.481Z,16108
2016-10-07T10:44:18.591Z,16544
2016-10-07T10:45:18.411Z,16896
2016-10-07T10:46:18.336Z,17280
2016-10-07T10:47:18.203Z,17728
2016-10-07T10:48:17.828Z,17952
2016-10-07T10:49:16.460Z,17760
2016-10-07T10:50:16.768Z,17408
2016-10-07T10:51:16.454Z,17344
2016-10-07T10:52:16.447Z,17408
2016-10-07T10:53:17.442Z,17440
2016-10-07T10:54:19.382Z,17504
2016-10-07T10:55:17.855Z,17536
2016-10-07T10:56:18.179Z,17632
2016-10-07T10:57:17.223Z,17952
2016-10-07T10:58:17.306Z,18560
2016-10-07T10:59:16.432Z,19168
2016-10-07T11:00:16.437Z,19392
2016-10-07T11:01:16.435Z,19456
2016-10-07T11:02:16.445Z,19456
2016-10-07T11:03:16.422Z,19040
2016-10-07T11:04:16.421Z,18208
2016-10-07T11:05:16.423Z,17728
2016-10-07T11:06:16.425Z,17280
2016-10-07T11:07:16.422Z,16640
2016-10-07T11:08:16.420Z,15572
2016-10-07T11:09:16.408Z,14348
2016-10-07T11:10:16.407Z,13192
2016-10-07T11:11:16.408Z,12536
2016-10-07T11:12:16.403Z,11808
2016-10-07T11:13:16.410Z,11328
2016-10-07T11:14:16.393Z,11572
2016-10-07T11:15:16.395Z,11952
2016-10-07T11:16:16.390Z,12896
2016-10-07T11:17:16.386Z,13852
2016-10-07T11:18:16.384Z,14648
2016-10-07T11:19:16.381Z,15808
2016-10-07T11:20:16.383Z,17152
2016-10-07T11:21:16.371Z,17536
2016-10-07T11:22:16.386Z,16896
2016-10-07T11:23:16.375Z,15336
2016-10-07T11:24:16.375Z,13800
2016-10-07T11:25:16.371Z,12936
2016-10-07T11:26:16.366Z,13072
2016-10-07T11:27:16.777Z,13848
2016-10-07T11:28:16.360Z,14456
2016-10-07T11:29:31.366Z,14944
2016-10-07T11:31:16.347Z,15364
2016-10-07T11:33:17.091Z,16416
2016-10-07T11:34:16.339Z,16896
2016-10-07T11:35:16.832Z,17152
2016-10-07T11:36:16.337Z,16768
2016-10-07T11:37:16.326Z,16864
2016-10-07T11:38:16.927Z,17088
2016-10-07T11:39:16.890Z,17312
2016-10-07T11:40:32.288Z,18336
2016-10-07T11:41:31.229Z,18816
2016-10-07T11:42:31.784Z,19232
2016-10-07T11:43:17.362Z,19392
2016-10-07T11:44:16.313Z,18656
2016-10-07T11:45:16.304Z,18080
2016-10-07T11:46:16.300Z,17856
2016-10-07T11:47:16.301Z,18176
2016-10-07T11:48:16.300Z,19008
2016-10-07T11:49:16.285Z,19936
2016-10-07T11:50:16.295Z,20736
2016-10-07T11:51:16.285Z,21632
2016-10-07T11:52:16.278Z,22528
2016-10-07T11:53:16.288Z,23168
2016-10-07T11:54:16.275Z,23200
2016-10-07T11:55:16.287Z,21952
2016-10-07T11:56:16.277Z,19200
2016-10-07T11:57:16.271Z,15596
2016-10-07T11:58:16.271Z,14104
2016-10-07T11:59:16.267Z,13360
2016-10-07T12:00:16.268Z,13036
2016-10-07T12:01:16.263Z,13056
2016-10-07T12:02:16.267Z,12852
2016-10-07T12:03:18.197Z,12372
2016-10-07T12:04:19.054Z,12740
2016-10-07T12:05:17.709Z,13472
2016-10-07T12:06:17.419Z,14716
2016-10-07T12:07:16.932Z,16896
2016-10-07T12:08:16.250Z,18976
2016-10-07T12:09:16.572Z,20512
2016-10-07T12:10:16.241Z,20864
2016-10-07T12:11:16.254Z,19648
2016-10-07T12:12:19.258Z,18016
2016-10-07T12:13:18.680Z,17216
2016-10-07T12:14:17.976Z,16608
2016-10-07T12:15:18.033Z,15756
2016-10-07T12:16:16.227Z,15304
2016-10-07T12:17:16.231Z,15208
2016-10-07T12:18:16.233Z,15272
2016-10-07T12:19:16.431Z,15188
2016-10-07T12:20:16.285Z,15348
2016-10-07T12:21:16.222Z,15448
2016-10-07T12:22:16.231Z,15680
2016-10-07T12:23:16.215Z,15564
2016-10-07T12:24:16.214Z,15324
2016-10-07T12:25:16.206Z,15176
2016-10-07T12:26:16.206Z,14968
2016-10-07T12:27:31.489Z,15428
2016-10-07T12:28:16.200Z,15828
2016-10-07T12:29:16.203Z,16448
2016-10-07T12:30:16.202Z,16320
2016-10-07T12:31:16.203Z,15348
2016-10-07T12:32:16.193Z,14084
2016-10-07T12:33:16.200Z,13308
2016-10-07T12:34:16.180Z,12548
2016-10-07T12:35:16.184Z,11520
2016-10-07T12:36:16.185Z,10456
2016-10-07T12:37:16.185Z,10140
2016-10-07T12:38:16.184Z,10224
2016-10-07T12:39:16.173Z,10252
2016-10-07T12:40:16.174Z,9876
2016-10-07T12:41:16.171Z,9512
2016-10-07T12:42:16.177Z,9196
2016-10-07T12:43:16.159Z,9632
2016-10-07T12:44:16.469Z,10736
2016-10-07T12:45:16.159Z,12020
2016-10-07T12:46:16.164Z,12664
2016-10-07T12:48:31.871Z,13084
2016-10-07T12:49:31.869Z,12616
2016-10-07T12:50:16.546Z,11592
2016-10-07T12:51:17.297Z,10532
2016-10-07T12:52:16.137Z,9720
2016-10-07T12:53:16.835Z,9160
2016-10-07T12:54:16.136Z,9180
2016-10-07T12:55:16.133Z,9636
2016-10-07T12:56:16.171Z,10144
2016-10-07T12:59:16.720Z,8744
2016-10-07T13:00:16.119Z,8416
2016-10-07T13:01:16.108Z,8340
2016-10-07T13:02:16.102Z,8564
2016-10-07T13:03:16.108Z,9132
2016-10-07T13:04:16.106Z,9852
2016-10-07T13:05:16.100Z,10640
2016-10-07T13:06:16.097Z,11308
2016-10-07T13:07:16.097Z,11656
2016-10-07T13:08:16.089Z,11964
2016-10-07T13:09:16.081Z,12040
2016-10-07T13:10:16.086Z,11964
2016-10-07T13:11:16.082Z,12068
2016-10-07T13:12:16.069Z,11976
2016-10-07T13:13:16.074Z,11872
2016-10-07T13:14:16.069Z,11708
2016-10-07T13:15:16.061Z,11520
2016-10-07T13:16:16.069Z,11444
2016-10-07T13:17:16.054Z,11448
2016-10-07T13:18:16.051Z,11608
2016-10-07T13:19:16.052Z,12036
2016-10-07T13:20:16.049Z,12460
2016-10-07T13:21:19.216Z,12684
2016-10-07T13:22:17.543Z,12696
2016-10-07T13:23:16.059Z,12552
2016-10-07T13:24:17.781Z,12384
2016-10-07T13:25:16.035Z,12228
2016-10-07T13:26:16.025Z,12168
2016-10-07T13:27:16.021Z,12016
2016-10-07T13:28:16.020Z,12052
2016-10-07T13:29:16.015Z,12256
2016-10-07T13:30:18.139Z,12644
2016-10-07T13:31:19.099Z,12880
2016-10-07T13:32:16.072Z,12888
2016-10-07T13:33:18.202Z,12848
2016-10-07T13:34:16.056Z,12852
2016-10-07T13:35:16.513Z,13028
2016-10-07T13:36:16.018Z,13228
2016-10-07T13:37:15.991Z,13560
2016-10-07T13:38:15.990Z,13760
2016-10-07T13:39:15.988Z,13872
2016-10-07T13:40:15.979Z,13908
2016-10-07T13:41:15.978Z,13944
2016-10-07T13:42:15.984Z,13956
2016-10-07T13:43:15.965Z,13820
2016-10-07T13:44:15.984Z,13784
2016-10-07T13:45:15.974Z,13604
2016-10-07T13:46:15.958Z,13272
2016-10-07T13:47:15.960Z,12816
2016-10-07T13:48:15.961Z,12476
2016-10-07T13:49:15.959Z,12276
2016-10-07T13:50:15.954Z,12160
2016-10-07T13:51:15.955Z,12084
2016-10-07T13:52:15.946Z,12012
2016-10-07T13:53:15.943Z,11968
2016-10-07T13:54:15.937Z,11956
2016-10-07T13:55:15.932Z,12040
2016-10-07T13:56:15.931Z,12140
2016-10-07T13:57:15.926Z,12196
2016-10-07T13:58:16.233Z,12232
2016-10-07T13:59:15.921Z,12252
2016-10-07T14:00:15.922Z,12176